createdAt,value
2023-05-14T00:00:50.998Z,16.60
2023-05-14T00:03:18.774Z,16.50
2023-05-14T00:05:46.599Z,16.70
2023-05-14T00:08:14.324Z,16.60
2023-05-14T00:10:42.055Z,16.80
2023-05-14T00:13:10.019Z,16.90
2023-05-14T00:15:38.133Z,16.70
2023-05-14T00:18:06.350Z,16.50
2023-05-14T00:20:34.109Z,16.90
2023-05-14T00:23:01.841Z,16.70
2023-05-14T00:25:30.532Z,16.80
2023-05-14T00:27:58.334Z,16.50
2023-05-14T00:30:26.149Z,16.40
2023-05-14T00:32:54.091Z,16.30
2023-05-14T00:35:22.346Z,16.30
2023-05-14T00:37:50.249Z,16.40
2023-05-14T00:40:19.319Z,16.20
2023-05-14T00:42:47.003Z,16.20
2023-05-14T00:45:14.699Z,16.20
2023-05-14T00:47:42.681Z,16.20
2023-05-14T00:50:11.880Z,16.20
2023-05-14T00:52:40.230Z,15.80
2023-05-14T00:57:57.826Z,15.90
2023-05-14T01:00:25.892Z,16.00
2023-05-14T01:02:53.888Z,16.10
2023-05-14T01:05:24.601Z,16.20
2023-05-14T01:08:00.315Z,15.90
2023-05-14T01:10:37.513Z,15.80
2023-05-14T01:13:13.351Z,15.90
2023-05-14T01:15:44.301Z,15.90
2023-05-14T01:18:16.591Z,15.80
2023-05-14T01:20:45.692Z,15.80
2023-05-14T01:23:13.944Z,15.90
2023-05-14T01:25:41.715Z,15.80
2023-05-14T01:28:17.142Z,15.70
2023-05-14T01:30:56.568Z,15.70
2023-05-14T01:33:27.247Z,15.60
2023-05-14T01:35:55.873Z,15.40
2023-05-14T01:38:24.006Z,15.40
2023-05-14T01:40:52.486Z,18.30
2023-05-14T01:43:20.853Z,15.30
2023-05-14T01:45:49.350Z,15.20
2023-05-14T01:48:17.097Z,15.30
2023-05-14T01:50:45.043Z,15.50
2023-05-14T01:53:12.861Z,15.50
2023-05-14T01:55:40.599Z,15.40
2023-05-14T01:58:08.292Z,15.70
2023-05-14T02:00:36.092Z,15.70
2023-05-14T02:03:03.836Z,15.60
2023-05-14T02:05:31.660Z,15.40
2023-05-14T02:07:59.385Z,15.80
2023-05-14T02:10:27.134Z,15.80
2023-05-14T02:12:55.869Z,15.70
2023-05-14T02:15:23.695Z,15.70
2023-05-14T02:17:51.465Z,16.00
2023-05-14T02:20:19.527Z,15.80
2023-05-14T02:22:47.606Z,15.60
2023-05-14T02:25:15.857Z,15.70
2023-05-14T02:27:44.190Z,15.60
2023-05-14T02:30:13.525Z,15.70
2023-05-14T02:32:41.400Z,15.50
2023-05-14T02:35:10.423Z,15.40
2023-05-14T02:37:38.118Z,15.50
2023-05-14T02:40:08.485Z,15.40
2023-05-14T02:42:36.243Z,15.20
2023-05-14T02:45:05.970Z,15.30
2023-05-14T02:47:36.097Z,16.10
2023-05-14T02:50:08.117Z,15.30
2023-05-14T02:52:36.299Z,15.20
2023-05-14T02:55:05.569Z,15.20
2023-05-14T02:57:33.276Z,15.10
2023-05-14T03:00:00.988Z,15.00
2023-05-14T03:02:30.484Z,14.90
2023-05-14T03:04:58.804Z,15.00
2023-05-14T03:07:26.664Z,14.60
2023-05-14T03:09:54.449Z,14.90
2023-05-14T03:12:22.184Z,14.80
2023-05-14T03:14:49.897Z,14.80
2023-05-14T03:17:17.801Z,14.60
2023-05-14T03:19:45.521Z,14.60
2023-05-14T03:22:13.251Z,14.60
2023-05-14T03:24:41.033Z,14.50
2023-05-14T03:27:08.811Z,14.40
2023-05-14T03:29:36.532Z,14.40
2023-05-14T03:32:05.979Z,14.10
2023-05-14T03:34:33.889Z,14.50
2023-05-14T03:37:01.614Z,14.60
2023-05-14T03:39:29.384Z,14.60
2023-05-14T03:41:58.301Z,14.30
2023-05-14T03:44:26.321Z,14.10
2023-05-14T03:46:53.987Z,14.20
2023-05-14T03:49:21.720Z,14.30
2023-05-14T03:51:49.420Z,14.40
2023-05-14T03:54:17.152Z,14.20
2023-05-14T03:56:45.245Z,14.00
2023-05-14T03:59:13.247Z,14.30
2023-05-14T04:01:40.892Z,14.20
2023-05-14T04:04:08.681Z,14.30
2023-05-14T04:06:37.033Z,14.20
2023-05-14T04:09:04.860Z,14.40
2023-05-14T04:11:32.912Z,14.00
2023-05-14T04:14:00.636Z,14.50
2023-05-14T04:16:28.437Z,14.50
2023-05-14T04:18:56.313Z,14.60
2023-05-14T04:21:24.040Z,14.60
2023-05-14T04:23:51.737Z,14.40
2023-05-14T04:26:19.401Z,14.30
2023-05-14T04:28:47.144Z,14.30
2023-05-14T04:31:15.073Z,14.20
2023-05-14T04:33:42.796Z,14.20
2023-05-14T04:36:10.522Z,14.00
2023-05-14T04:38:38.152Z,14.10
2023-05-14T04:41:06.487Z,14.20
2023-05-14T04:43:34.148Z,14.30
2023-05-14T04:46:01.939Z,14.30
2023-05-14T04:48:29.853Z,14.40
2023-05-14T04:50:57.706Z,14.40
2023-05-14T04:53:25.458Z,14.30
2023-05-14T04:55:53.485Z,14.20
2023-05-14T04:58:22.867Z,14.20
2023-05-14T05:03:38.528Z,14.30
2023-05-14T05:06:07.708Z,14.20
2023-05-14T05:08:36.305Z,14.40
2023-05-14T05:11:04.903Z,14.60
2023-05-14T05:13:32.637Z,14.30
2023-05-14T05:16:00.677Z,14.40
2023-05-14T05:18:28.518Z,14.30
2023-05-14T05:20:56.337Z,14.10
2023-05-14T05:23:24.100Z,14.30
2023-05-14T05:25:51.804Z,14.40
2023-05-14T05:28:19.626Z,14.40
2023-05-14T05:30:47.330Z,14.40
2023-05-14T05:33:15.123Z,14.10
2023-05-14T05:35:43.823Z,14.50
2023-05-14T05:38:11.591Z,14.70
2023-05-14T05:40:39.345Z,14.50
2023-05-14T05:43:07.072Z,14.80
2023-05-14T05:45:34.791Z,14.90
2023-05-14T05:48:03.030Z,14.90
2023-05-14T05:50:31.686Z,15.10
2023-05-14T05:52:59.614Z,15.00
2023-05-14T05:55:27.762Z,14.90
2023-05-14T05:57:55.684Z,15.00
2023-05-14T06:00:23.926Z,15.10
2023-05-14T06:02:51.846Z,15.10
2023-05-14T06:05:19.694Z,15.20
2023-05-14T06:07:47.448Z,15.20
2023-05-14T06:10:15.122Z,15.30
2023-05-14T06:12:42.796Z,15.20
2023-05-14T06:15:12.479Z,15.40
2023-05-14T06:17:40.882Z,15.40
2023-05-14T06:20:11.075Z,15.60
2023-05-14T06:22:38.798Z,15.60
2023-05-14T06:25:08.808Z,15.50
2023-05-14T06:27:36.591Z,15.70
2023-05-14T06:30:06.406Z,15.90
2023-05-14T06:32:34.151Z,15.90
2023-05-14T06:35:01.849Z,16.00
2023-05-14T06:37:29.637Z,16.10
2023-05-14T06:39:58.045Z,16.10
2023-05-14T06:42:26.003Z,16.20
2023-05-14T06:44:54.282Z,16.20
2023-05-14T06:47:22.222Z,16.30
2023-05-14T06:49:50.148Z,16.30
2023-05-14T06:52:18.689Z,16.50
2023-05-14T06:54:46.398Z,16.40
2023-05-14T06:57:14.120Z,16.40
2023-05-14T06:59:42.033Z,16.40
2023-05-14T07:02:10.091Z,16.50
2023-05-14T07:04:37.975Z,16.60
2023-05-14T07:07:06.159Z,16.70
2023-05-14T07:09:33.964Z,16.70
2023-05-14T07:12:01.709Z,16.80
2023-05-14T07:14:29.424Z,16.90
2023-05-14T07:16:57.704Z,16.90
2023-05-14T07:19:27.901Z,20.90
2023-05-14T07:21:55.665Z,17.30
2023-05-14T07:24:23.936Z,17.40
2023-05-14T07:26:51.758Z,17.00
2023-05-14T07:29:19.457Z,17.30
2023-05-14T07:31:47.256Z,17.20
2023-05-14T07:34:15.186Z,17.00
2023-05-14T07:36:43.156Z,17.20
2023-05-14T07:39:10.947Z,17.20
2023-05-14T07:41:38.796Z,17.20
2023-05-14T07:44:06.549Z,17.30
2023-05-14T07:46:34.269Z,17.30
2023-05-14T07:49:02.022Z,17.30
2023-05-14T07:51:29.769Z,17.40
2023-05-14T07:53:57.441Z,17.40
2023-05-14T07:56:25.401Z,17.50
2023-05-14T07:58:53.174Z,17.60
2023-05-14T08:01:21.134Z,17.40
2023-05-14T08:03:49.012Z,17.70
2023-05-14T08:06:16.926Z,17.70
2023-05-14T08:08:44.683Z,17.40
2023-05-14T08:11:12.532Z,17.80
2023-05-14T08:13:40.857Z,17.90
2023-05-14T08:16:08.899Z,17.80
2023-05-14T08:18:36.684Z,17.90
2023-05-14T08:21:05.460Z,17.90
2023-05-14T08:23:33.367Z,18.00
2023-05-14T08:26:01.084Z,18.00
2023-05-14T08:28:28.860Z,18.10
2023-05-14T08:30:56.656Z,18.20
2023-05-14T08:33:24.518Z,18.20
2023-05-14T08:35:53.719Z,18.20
2023-05-14T08:38:21.507Z,18.10
2023-05-14T08:40:53.933Z,18.30
2023-05-14T08:43:26.394Z,18.60
2023-05-14T08:45:57.591Z,18.30
2023-05-14T08:51:13.587Z,18.30
2023-05-14T08:53:41.333Z,18.30
2023-05-14T08:56:10.312Z,18.30
2023-05-14T08:58:38.103Z,18.40
2023-05-14T09:01:06.068Z,18.40
2023-05-14T09:03:34.582Z,18.40
2023-05-14T09:06:03.686Z,18.40
2023-05-14T09:08:31.528Z,14.40
2023-05-14T09:10:59.308Z,18.60
2023-05-14T09:13:28.324Z,18.60
2023-05-14T09:15:57.157Z,18.60
2023-05-14T09:18:25.629Z,18.60
2023-05-14T09:20:53.816Z,18.60
2023-05-14T09:23:21.964Z,18.80
2023-05-14T09:25:49.793Z,18.80
2023-05-14T09:28:18.441Z,18.90
2023-05-14T09:30:51.421Z,18.90
2023-05-14T09:33:27.676Z,19.00
2023-05-14T09:35:59.502Z,19.00
2023-05-14T09:38:30.120Z,19.10
2023-05-14T09:40:58.276Z,19.10
2023-05-14T09:43:26.464Z,19.10
2023-05-14T09:45:54.174Z,19.00
2023-05-14T09:48:22.407Z,19.00
2023-05-14T09:50:51.409Z,19.10
2023-05-14T09:53:19.503Z,19.10
2023-05-14T09:55:48.629Z,19.10
2023-05-14T09:58:16.497Z,19.30
2023-05-14T10:00:46.596Z,19.10
2023-05-14T10:03:17.184Z,19.10
2023-05-14T10:08:41.833Z,19.20
2023-05-14T10:11:15.357Z,18.90
2023-05-14T10:13:48.347Z,19.40
2023-05-14T10:16:19.913Z,19.50
2023-05-14T10:18:52.051Z,19.40
2023-05-14T10:21:22.088Z,19.40
2023-05-14T10:23:51.073Z,19.50
2023-05-14T10:26:22.388Z,19.50
2023-05-14T10:28:51.768Z,19.50
2023-05-14T10:31:24.025Z,19.60
2023-05-14T10:33:52.140Z,19.60
2023-05-14T10:36:21.919Z,19.60
2023-05-14T10:38:56.556Z,19.70
2023-05-14T10:41:24.587Z,19.70
2023-05-14T10:43:52.383Z,19.70
2023-05-14T10:46:20.557Z,19.80
2023-05-14T10:48:49.488Z,19.80
2023-05-14T10:51:20.121Z,20.00
2023-05-14T10:53:48.533Z,19.80
2023-05-14T10:56:16.528Z,19.70
2023-05-14T10:58:45.638Z,19.90
2023-05-14T11:01:13.980Z,20.00
2023-05-14T11:03:43.660Z,20.00
2023-05-14T11:06:13.603Z,19.80
2023-05-14T11:08:41.996Z,19.80
2023-05-14T11:11:10.527Z,20.10
2023-05-14T11:13:39.016Z,20.40
2023-05-14T11:16:21.555Z,19.80
2023-05-14T11:19:01.123Z,20.20
2023-05-14T11:21:29.105Z,20.20
2023-05-14T11:23:57.543Z,20.10
2023-05-14T11:26:25.659Z,20.50
2023-05-14T11:28:53.598Z,20.10
2023-05-14T11:31:23.437Z,20.30
2023-05-14T11:33:53.750Z,20.30
2023-05-14T11:36:22.125Z,20.30
2023-05-14T11:38:51.590Z,20.20
2023-05-14T11:41:20.971Z,20.30
2023-05-14T11:43:49.119Z,20.10
2023-05-14T11:46:20.977Z,20.00
2023-05-14T11:48:49.451Z,20.00
2023-05-14T11:51:17.317Z,20.10
2023-05-14T11:53:46.559Z,20.10
2023-05-14T11:56:14.449Z,20.20
2023-05-14T11:58:47.162Z,19.80
2023-05-14T12:01:16.619Z,20.00
2023-05-14T12:03:44.745Z,20.20
2023-05-14T12:06:12.593Z,20.40
2023-05-14T12:08:40.543Z,20.30
2023-05-14T12:11:09.487Z,20.40
2023-05-14T12:13:37.217Z,20.30
2023-05-14T12:16:06.294Z,20.70
2023-05-14T12:18:34.733Z,20.60
2023-05-14T12:21:07.549Z,20.60
2023-05-14T12:23:35.286Z,20.80
2023-05-14T12:26:05.349Z,21.10
2023-05-14T12:28:36.073Z,21.00
2023-05-14T12:31:05.925Z,21.00
2023-05-14T12:33:33.838Z,21.10
2023-05-14T12:36:17.571Z,21.00
2023-05-14T12:38:49.814Z,21.00
2023-05-14T12:41:17.719Z,21.00
2023-05-14T12:43:47.345Z,20.90
2023-05-14T12:46:15.704Z,20.90
2023-05-14T12:48:43.649Z,20.90
2023-05-14T12:51:11.548Z,21.00
2023-05-14T12:53:39.369Z,20.90
2023-05-14T12:56:08.299Z,20.90
2023-05-14T12:58:36.472Z,21.10
2023-05-14T13:01:04.408Z,21.10
2023-05-14T13:03:32.374Z,21.10
2023-05-14T13:06:00.984Z,21.30
2023-05-14T13:08:28.998Z,21.30
2023-05-14T13:10:57.216Z,21.40
2023-05-14T13:13:25.571Z,21.60
2023-05-14T13:15:54.899Z,21.60
2023-05-14T13:18:22.671Z,21.80
2023-05-14T13:20:51.165Z,21.60
2023-05-14T13:23:18.932Z,21.80
2023-05-14T13:25:49.758Z,21.80
2023-05-14T13:28:17.821Z,21.80
2023-05-14T13:31:05.022Z,21.40
2023-05-14T13:33:33.957Z,21.50
2023-05-14T13:36:01.867Z,21.30
2023-05-14T13:38:29.986Z,21.20
2023-05-14T13:41:01.560Z,20.90
2023-05-14T13:43:30.564Z,21.00
2023-05-14T13:45:58.955Z,21.00
2023-05-14T13:48:27.114Z,20.90
2023-05-14T13:50:55.167Z,20.80
2023-05-14T13:53:23.958Z,20.70
2023-05-14T13:55:55.609Z,20.50
2023-05-14T13:58:23.838Z,20.50
2023-05-14T14:00:52.000Z,20.40
2023-05-14T14:03:19.941Z,20.50
2023-05-14T14:05:47.811Z,20.40
2023-05-14T14:08:23.506Z,20.40
2023-05-14T14:10:54.398Z,20.60
2023-05-14T14:13:22.389Z,20.60
2023-05-14T14:15:50.423Z,20.60
2023-05-14T14:18:18.324Z,20.40
2023-05-14T14:20:46.284Z,20.90
2023-05-14T14:23:14.103Z,21.00
2023-05-14T14:25:41.806Z,21.70
2023-05-14T14:28:09.636Z,21.20
2023-05-14T14:30:37.425Z,21.30
2023-05-14T14:33:05.278Z,21.10
2023-05-14T14:35:34.627Z,21.40
2023-05-14T14:38:02.360Z,21.30
2023-05-14T14:40:32.213Z,21.30
2023-05-14T14:43:01.235Z,21.50
2023-05-14T14:45:29.055Z,21.40
2023-05-14T14:48:22.727Z,21.40
2023-05-14T14:50:51.420Z,21.30
2023-05-14T14:53:19.196Z,21.50
2023-05-14T14:55:47.373Z,21.40
2023-05-14T14:58:15.313Z,21.30
2023-05-14T15:00:44.919Z,21.50
2023-05-14T15:03:14.183Z,21.40
2023-05-14T15:05:42.128Z,21.20
2023-05-14T15:08:10.134Z,21.20
2023-05-14T15:10:38.446Z,21.10
2023-05-14T15:13:07.566Z,21.10
2023-05-14T15:15:39.244Z,21.10
2023-05-14T15:18:07.211Z,21.10
2023-05-14T15:20:35.056Z,21.20
2023-05-14T15:23:03.679Z,21.20
2023-05-14T15:25:31.573Z,20.80
2023-05-14T15:27:59.498Z,21.20
2023-05-14T15:30:27.359Z,21.10
2023-05-14T15:32:55.270Z,21.30
2023-05-14T15:35:23.593Z,21.10
2023-05-14T15:37:51.473Z,21.30
2023-05-14T15:40:19.590Z,21.60
2023-05-14T15:42:47.420Z,21.40
2023-05-14T15:45:15.201Z,21.40
2023-05-14T15:47:44.397Z,21.60
2023-05-14T15:52:46.739Z,21.40
2023-05-14T15:55:15.080Z,21.40
2023-05-14T15:57:43.254Z,21.40
2023-05-14T16:00:13.661Z,21.40
2023-05-14T16:05:29.740Z,21.20
2023-05-14T16:07:58.029Z,21.20
2023-05-14T16:10:26.042Z,20.90
2023-05-14T16:12:54.105Z,20.90
2023-05-14T16:15:21.989Z,20.90
2023-05-14T16:17:49.842Z,20.90
2023-05-14T16:20:18.125Z,20.80
2023-05-14T16:22:46.154Z,20.80
2023-05-14T16:25:14.136Z,20.80
2023-05-14T16:27:42.049Z,20.90
2023-05-14T16:30:11.993Z,20.90
2023-05-14T16:35:28.842Z,20.90
2023-05-14T16:37:57.161Z,20.90
2023-05-14T16:40:25.111Z,20.90
2023-05-14T16:42:53.115Z,20.60
2023-05-14T16:45:20.856Z,20.70
2023-05-14T16:47:48.616Z,20.50
2023-05-14T16:50:16.573Z,20.40
2023-05-14T16:52:44.361Z,20.20
2023-05-14T16:55:12.132Z,20.00
2023-05-14T16:57:39.993Z,20.10
2023-05-14T17:00:11.156Z,20.00
2023-05-14T17:02:39.190Z,20.00
2023-05-14T17:05:09.210Z,19.90
2023-05-14T17:07:38.379Z,19.90
2023-05-14T17:10:09.003Z,19.90
2023-05-14T17:12:36.926Z,19.80
2023-05-14T17:15:07.001Z,19.90
2023-05-14T17:17:34.788Z,19.90
2023-05-14T17:20:04.981Z,19.80
2023-05-14T17:22:33.168Z,19.80
2023-05-14T17:25:01.185Z,19.90
2023-05-14T17:27:32.466Z,19.90
2023-05-14T17:30:00.323Z,19.90
2023-05-14T17:32:28.894Z,19.90
2023-05-14T17:34:57.513Z,19.90
2023-05-14T17:37:26.263Z,19.90
2023-05-14T17:39:54.074Z,19.90
2023-05-14T17:42:21.940Z,19.90
2023-05-14T17:44:49.805Z,20.10
2023-05-14T17:47:19.971Z,19.90
2023-05-14T17:49:50.329Z,19.80
2023-05-14T17:52:18.542Z,20.00
2023-05-14T17:54:46.525Z,20.00
2023-05-14T17:57:14.351Z,20.00
2023-05-14T17:59:42.281Z,19.90
2023-05-14T18:02:10.071Z,19.70
2023-05-14T18:04:38.017Z,19.60
2023-05-14T18:07:06.129Z,19.60
2023-05-14T18:09:34.092Z,19.60
2023-05-14T18:12:01.929Z,19.50
2023-05-14T18:14:29.744Z,19.50
2023-05-14T18:16:57.719Z,19.00
2023-05-14T18:19:25.594Z,19.40
2023-05-14T18:21:54.714Z,19.30
2023-05-14T18:24:22.603Z,19.30
2023-05-14T18:26:50.676Z,19.30
2023-05-14T18:29:18.947Z,19.00
2023-05-14T18:31:46.926Z,19.10
2023-05-14T18:34:14.819Z,19.10
2023-05-14T18:36:42.934Z,19.00
2023-05-14T18:39:10.852Z,19.00
2023-05-14T18:41:38.701Z,18.90
2023-05-14T18:44:06.534Z,18.70
2023-05-14T18:46:34.479Z,18.90
2023-05-14T18:49:02.535Z,18.80
2023-05-14T18:51:30.564Z,18.70
2023-05-14T18:53:58.936Z,18.60
2023-05-14T18:56:26.841Z,18.60
2023-05-14T18:58:54.680Z,18.50
2023-05-14T19:01:24.862Z,18.70
2023-05-14T19:03:53.742Z,18.20
2023-05-14T19:06:22.117Z,18.50
2023-05-14T19:08:49.955Z,18.40
2023-05-14T19:11:18.000Z,18.50
2023-05-14T19:13:47.247Z,18.50
2023-05-14T19:18:43.063Z,18.50
2023-05-14T19:21:11.116Z,18.60
2023-05-14T19:26:07.123Z,18.60
2023-05-14T19:28:37.206Z,18.50
2023-05-14T19:31:05.260Z,18.30
2023-05-14T19:33:33.464Z,18.30
2023-05-14T19:40:56.852Z,18.20
2023-05-14T19:43:26.152Z,18.20
2023-05-14T19:45:54.262Z,18.20
2023-05-14T19:53:17.555Z,17.90
2023-05-14T19:58:13.433Z,18.10
2023-05-14T20:03:09.282Z,17.90
2023-05-14T20:10:35.436Z,17.90
2023-05-14T20:13:03.200Z,18.20
2023-05-14T20:15:31.192Z,20.30
2023-05-14T20:17:59.056Z,17.70
2023-05-14T20:20:28.346Z,17.60
2023-05-14T20:22:58.304Z,17.70
2023-05-14T20:30:24.465Z,17.90
2023-05-14T20:32:52.744Z,17.80
2023-05-14T20:35:21.186Z,17.90
2023-05-14T20:37:49.168Z,17.90
2023-05-14T20:40:17.616Z,17.80
2023-05-14T20:52:37.448Z,18.10
2023-05-14T20:55:07.818Z,17.80
2023-05-14T20:57:35.554Z,17.70
2023-05-14T21:05:02.296Z,20.00
2023-05-14T21:14:53.190Z,17.30
2023-05-14T21:17:21.030Z,17.50
2023-05-14T21:19:48.996Z,17.60
2023-05-14T21:22:16.772Z,17.70
2023-05-14T21:29:58.099Z,17.40
2023-05-14T21:32:26.164Z,17.40
2023-05-14T21:34:54.170Z,17.40
2023-05-14T21:37:22.232Z,17.30
2023-05-14T21:39:50.221Z,17.30
2023-05-14T21:42:20.218Z,17.40
2023-05-14T21:44:48.042Z,17.40
2023-05-14T21:47:16.268Z,17.30
2023-05-14T21:49:43.999Z,17.40
2023-05-14T21:52:12.100Z,17.40
2023-05-14T21:54:39.994Z,17.30
2023-05-14T21:57:08.105Z,17.10
2023-05-14T21:59:38.142Z,17.00
2023-05-14T22:02:07.614Z,17.10
2023-05-14T22:04:35.946Z,17.00
2023-05-14T22:07:04.385Z,17.00
2023-05-14T22:09:32.197Z,17.00
2023-05-14T22:12:00.089Z,17.00
2023-05-14T22:14:28.135Z,17.00
2023-05-14T22:16:56.228Z,17.10
2023-05-14T22:19:25.142Z,16.60
2023-05-14T22:21:52.997Z,16.90
2023-05-14T22:24:21.358Z,16.80
2023-05-14T22:26:49.128Z,16.80
2023-05-14T22:29:17.001Z,16.70
2023-05-14T22:31:45.195Z,16.70
2023-05-14T22:34:13.123Z,16.70
2023-05-14T22:36:40.906Z,16.80
2023-05-14T22:39:09.300Z,16.60
2023-05-14T22:41:37.832Z,16.50
2023-05-14T22:44:05.546Z,16.40
2023-05-14T22:46:33.509Z,16.40
2023-05-14T22:49:01.314Z,16.40
2023-05-14T22:51:29.266Z,16.60
2023-05-14T22:53:57.192Z,16.60
2023-05-14T22:56:24.993Z,16.60
2023-05-14T22:58:52.749Z,16.60
2023-05-14T23:01:20.593Z,16.60
2023-05-14T23:03:48.696Z,16.60
2023-05-14T23:06:16.434Z,16.60
2023-05-14T23:08:44.299Z,16.50
2023-05-14T23:11:12.062Z,16.50
2023-05-14T23:13:40.180Z,16.20
2023-05-14T23:16:08.149Z,16.40
2023-05-14T23:18:35.990Z,16.30
2023-05-14T23:21:04.039Z,16.30
2023-05-14T23:23:31.825Z,16.30
2023-05-14T23:25:59.526Z,16.30
2023-05-14T23:28:27.551Z,16.40
2023-05-14T23:30:55.232Z,16.20
2023-05-14T23:33:23.020Z,16.30
2023-05-14T23:35:51.454Z,16.40
2023-05-14T23:38:20.328Z,16.40
2023-05-14T23:40:48.070Z,16.20
2023-05-14T23:43:16.170Z,16.10
2023-05-14T23:45:44.050Z,16.00
2023-05-14T23:48:11.890Z,16.00
2023-05-14T23:50:39.616Z,16.00
2023-05-14T23:53:07.567Z,16.10
2023-05-14T23:55:35.583Z,16.00
2023-05-14T23:58:03.341Z,15.90
